createdAt,value
2019-04-22T00:02:15.743Z,18.62
2019-04-22T00:04:58.953Z,18.07
2019-04-22T00:07:42.055Z,14.80
2019-04-22T00:10:21.107Z,14.93
2019-04-22T00:12:53.123Z,17.57
2019-04-22T00:15:19.703Z,17.20
2019-04-22T00:20:35.496Z,14.63
2019-04-22T00:23:04.055Z,15.32
2019-04-22T00:25:43.913Z,14.68
2019-04-22T00:28:15.662Z,15.25
2019-04-22T00:30:46.963Z,13.78
2019-04-22T00:33:20.469Z,14.00
2019-04-22T00:35:54.969Z,15.30
2019-04-22T00:38:33.433Z,18.40
2019-04-22T00:41:00.949Z,14.25
2019-04-22T00:43:42.196Z,13.98
2019-04-22T00:46:15.633Z,16.37
2019-04-22T00:48:50.103Z,13.53
2019-04-22T00:51:35.988Z,15.10
2019-04-22T00:53:46.785Z,16.25
2019-04-22T00:56:22.030Z,16.25
2019-04-22T00:58:50.317Z,15.45
2019-04-22T01:01:44.028Z,15.18
2019-04-22T01:04:17.230Z,14.75
2019-04-22T01:06:32.447Z,15.80
2019-04-22T01:09:12.277Z,15.35
2019-04-22T01:11:37.597Z,16.05
2019-04-22T01:14:19.783Z,14.28
2019-04-22T01:16:48.899Z,15.60
2019-04-22T01:19:26.022Z,15.95
2019-04-22T01:21:52.338Z,14.83
2019-04-22T01:24:29.425Z,19.67
2019-04-22T01:26:53.828Z,14.83
2019-04-22T01:29:28.037Z,19.77
2019-04-22T01:31:47.347Z,17.17
2019-04-22T01:34:33.608Z,15.83
2019-04-22T01:37:12.225Z,19.65
2019-04-22T01:39:50.051Z,15.00
2019-04-22T01:42:24.587Z,17.73
2019-04-22T01:44:50.924Z,17.00
2019-04-22T01:47:31.354Z,17.55
2019-04-22T01:50:06.163Z,18.77
2019-04-22T01:52:38.498Z,17.52
2019-04-22T01:55:17.798Z,15.38
2019-04-22T01:57:41.927Z,14.63
2019-04-22T02:00:11.484Z,21.45
2019-04-22T02:02:48.772Z,28.12
2019-04-22T02:05:24.404Z,21.30
2019-04-22T02:08:01.020Z,23.00
2019-04-22T02:10:44.162Z,21.02
2019-04-22T02:13:11.513Z,22.15
2019-04-22T02:15:43.741Z,23.47
2019-04-22T02:18:18.327Z,20.82
2019-04-22T02:21:03.359Z,23.25
2019-04-22T02:44:10.184Z,21.20
2019-04-22T02:51:33.489Z,18.60
2019-04-22T02:54:29.761Z,19.35
2019-04-22T02:59:28.800Z,20.75
2019-04-22T03:04:22.469Z,24.35
2019-04-22T03:06:52.379Z,25.77
2019-04-22T03:09:41.110Z,18.50
2019-04-22T03:12:16.395Z,22.13
2019-04-22T03:14:40.449Z,20.52
2019-04-22T03:17:20.632Z,24.87
2019-04-22T03:25:23.791Z,24.05
2019-04-22T03:35:37.521Z,24.25
2019-04-22T03:37:53.394Z,24.35
2019-04-22T03:48:05.396Z,27.80
2019-04-22T03:50:38.996Z,25.23
2019-04-22T03:53:14.897Z,26.68
2019-04-22T03:55:43.347Z,25.80
2019-04-22T03:58:10.897Z,24.52
2019-04-22T04:00:55.740Z,21.90
2019-04-22T04:03:29.178Z,25.68
2019-04-22T04:10:58.104Z,23.27
2019-04-22T04:13:39.457Z,26.33
2019-04-22T04:16:10.637Z,27.40
2019-04-22T04:29:22.200Z,32.13
2019-04-22T04:31:43.206Z,31.07
2019-04-22T04:34:19.417Z,33.88
2019-04-22T04:36:41.679Z,38.63
2019-04-22T04:41:52.090Z,36.73
2019-04-22T04:46:58.400Z,31.87
2019-04-22T04:57:07.265Z,33.38
2019-04-22T05:00:11.411Z,36.00
2019-04-22T05:05:00.148Z,31.52
2019-04-22T05:09:55.275Z,33.75
2019-04-22T05:12:34.049Z,29.75
2019-04-22T05:15:00.909Z,26.25
2019-04-22T05:17:36.882Z,27.90
2019-04-22T05:20:09.112Z,21.82
2019-04-22T05:22:34.173Z,25.43
2019-04-22T05:25:15.154Z,25.08
2019-04-22T05:27:39.679Z,20.92
2019-04-22T05:30:25.350Z,23.50
2019-04-22T05:35:20.587Z,15.63
2019-04-22T05:37:58.060Z,25.40
2019-04-22T05:42:56.301Z,17.90
2019-04-22T05:45:49.483Z,16.87
2019-04-22T05:48:00.977Z,23.23
2019-04-22T05:50:44.211Z,18.43
2019-04-22T05:53:07.231Z,19.13
2019-04-22T05:55:46.677Z,20.57
2019-04-22T05:58:15.652Z,26.77
2019-04-22T06:01:29.057Z,34.75
2019-04-22T06:03:39.704Z,27.73
2019-04-22T06:06:13.765Z,29.13
2019-04-22T06:08:45.598Z,33.80
2019-04-22T06:11:22.821Z,30.67
2019-04-22T06:13:53.329Z,23.80
2019-04-22T06:16:31.257Z,16.25
2019-04-22T06:19:08.737Z,21.27
2019-04-22T06:21:38.669Z,24.07
2019-04-22T06:29:15.285Z,21.87
2019-04-22T06:32:11.801Z,25.17
2019-04-22T06:34:27.052Z,26.07
2019-04-22T06:37:01.883Z,22.33
2019-04-22T06:39:28.168Z,26.90
2019-04-22T06:42:01.190Z,19.50
2019-04-22T06:47:06.553Z,17.73
2019-04-22T06:52:17.046Z,22.67
2019-04-22T06:54:50.389Z,20.43
2019-04-22T06:57:23.192Z,19.73
2019-04-22T06:59:52.068Z,43.57
2019-04-22T07:02:35.870Z,22.37
2019-04-22T07:05:01.033Z,19.17
2019-04-22T07:07:33.351Z,18.30
2019-04-22T07:10:18.267Z,23.47
2019-04-22T07:12:36.557Z,24.70
2019-04-22T07:15:23.828Z,16.00
2019-04-22T07:17:49.084Z,16.97
2019-04-22T07:20:20.019Z,18.67
2019-04-22T07:23:11.940Z,20.93
2019-04-22T07:25:25.945Z,18.90
2019-04-22T07:28:02.054Z,19.73
2019-04-22T07:35:45.947Z,17.47
2019-04-22T07:38:14.310Z,17.90
2019-04-22T07:40:43.346Z,15.63
2019-04-22T07:43:20.175Z,20.17
2019-04-22T07:45:49.301Z,15.10
2019-04-22T07:53:27.814Z,19.40
2019-04-22T07:56:00.176Z,15.27
2019-04-22T07:58:35.564Z,17.40
2019-04-22T08:01:12.152Z,15.77
2019-04-22T08:03:51.503Z,17.07
2019-04-22T08:06:20.722Z,13.40
2019-04-22T08:08:58.478Z,17.47
2019-04-22T08:11:37.533Z,13.67
2019-04-22T08:13:55.269Z,15.57
2019-04-22T08:16:28.476Z,17.87
2019-04-22T08:19:02.964Z,16.20
2019-04-22T08:21:38.442Z,17.90
2019-04-22T08:24:06.350Z,14.47
2019-04-22T08:26:38.318Z,18.80
2019-04-22T08:29:22.129Z,14.57
2019-04-22T08:31:48.655Z,13.47
2019-04-22T08:34:23.222Z,16.10
2019-04-22T08:39:25.527Z,17.33
2019-04-22T08:41:57.589Z,18.30
2019-04-22T08:44:52.221Z,16.27
2019-04-22T08:47:29.148Z,13.97
2019-04-22T08:49:52.062Z,17.53
2019-04-22T08:52:16.427Z,15.07
2019-04-22T08:54:50.801Z,60.83
2019-04-22T08:57:26.143Z,17.73
2019-04-22T08:59:59.056Z,18.20
2019-04-22T09:02:48.192Z,14.47
2019-04-22T09:05:10.867Z,15.53
2019-04-22T09:07:31.557Z,18.07
2019-04-22T09:10:24.363Z,15.10
2019-04-22T09:12:53.331Z,13.13
2019-04-22T09:15:13.244Z,11.70
2019-04-22T09:17:47.799Z,14.43
2019-04-22T09:20:20.477Z,12.97
2019-04-22T09:22:54.603Z,13.73
2019-04-22T09:25:27.438Z,12.63
2019-04-22T09:27:57.842Z,14.70
2019-04-22T09:30:40.418Z,18.20
2019-04-22T09:33:11.100Z,13.50
2019-04-22T09:35:45.069Z,11.87
2019-04-22T09:38:29.561Z,13.87
2019-04-22T09:40:50.371Z,14.50
2019-04-22T09:43:26.463Z,11.23
2019-04-22T09:45:54.387Z,12.60
2019-04-22T09:48:33.181Z,14.73
2019-04-22T09:51:11.842Z,13.60
2019-04-22T09:53:32.239Z,11.90
2019-04-22T09:56:03.794Z,18.90
2019-04-22T09:58:39.538Z,12.00
2019-04-22T10:01:26.107Z,11.60
2019-04-22T10:03:55.990Z,15.43
2019-04-22T10:06:27.875Z,12.53
2019-04-22T10:09:12.943Z,10.93
2019-04-22T10:11:32.600Z,9.87
2019-04-22T10:14:01.288Z,8.57
2019-04-22T10:16:39.320Z,11.20
2019-04-22T10:19:05.730Z,10.87
2019-04-22T10:21:44.808Z,9.70
2019-04-22T10:24:09.291Z,8.90
2019-04-22T10:26:44.127Z,8.93
2019-04-22T10:29:19.610Z,12.00
2019-04-22T10:34:15.676Z,7.60
2019-04-22T10:36:33.226Z,10.50
2019-04-22T10:39:06.532Z,11.30
2019-04-22T10:41:40.839Z,9.17
2019-04-22T10:44:13.001Z,12.53
2019-04-22T10:46:44.546Z,11.50
2019-04-22T10:49:16.141Z,12.20
2019-04-22T10:51:48.591Z,11.37
2019-04-22T10:54:19.828Z,8.57
2019-04-22T10:56:52.494Z,10.53
2019-04-22T10:59:24.703Z,10.07
2019-04-22T11:01:55.947Z,9.57
2019-04-22T11:04:28.111Z,10.43
2019-04-22T11:07:03.787Z,8.63
2019-04-22T11:09:34.099Z,8.20
2019-04-22T11:12:11.907Z,10.17
2019-04-22T11:14:42.795Z,12.63
2019-04-22T11:17:13.518Z,12.50
2019-04-22T11:19:45.833Z,7.87
2019-04-22T11:22:23.016Z,8.10
2019-04-22T11:24:50.906Z,7.20
2019-04-22T11:27:23.315Z,6.53
2019-04-22T11:29:55.378Z,8.93
2019-04-22T11:32:26.706Z,7.60
2019-04-22T11:34:58.107Z,7.53
2019-04-22T11:37:30.340Z,7.00
2019-04-22T11:40:11.482Z,7.00
2019-04-22T11:42:36.060Z,8.53
2019-04-22T11:45:09.154Z,8.33
2019-04-22T11:47:41.426Z,9.37
2019-04-22T11:50:15.749Z,7.17
2019-04-22T11:52:47.214Z,7.23
2019-04-22T11:55:19.177Z,7.17
2019-04-22T11:57:51.965Z,8.60
2019-04-22T12:00:30.727Z,8.53
2019-04-22T12:03:03.182Z,8.03
2019-04-22T12:05:34.462Z,6.70
2019-04-22T12:08:07.073Z,9.50
2019-04-22T12:10:48.290Z,8.73
2019-04-22T12:13:12.240Z,9.23
2019-04-22T12:15:44.757Z,9.00
2019-04-22T12:18:17.314Z,6.60
2019-04-22T12:20:48.853Z,9.00
2019-04-22T12:23:21.120Z,7.13
2019-04-22T12:26:00.907Z,6.63
2019-04-22T12:28:26.845Z,9.30
2019-04-22T12:30:59.629Z,7.83
2019-04-22T12:33:31.643Z,7.80
2019-04-22T12:36:04.513Z,8.60
2019-04-22T12:38:37.672Z,7.20
2019-04-22T12:41:11.990Z,7.73
2019-04-22T12:43:43.104Z,8.57
2019-04-22T12:46:14.556Z,7.07
2019-04-22T12:48:46.902Z,6.40
2019-04-22T12:51:18.893Z,9.57
2019-04-22T12:53:52.800Z,7.07
2019-04-22T12:56:25.674Z,7.03
2019-04-22T12:58:59.310Z,7.37
2019-04-22T13:01:30.921Z,8.53
2019-04-22T13:04:08.985Z,7.60
2019-04-22T13:06:35.590Z,6.17
2019-04-22T13:09:08.803Z,6.37
2019-04-22T13:11:40.770Z,7.00
2019-04-22T13:14:14.805Z,5.70
2019-04-22T13:16:47.404Z,7.03
2019-04-22T13:19:20.964Z,7.37
2019-04-22T13:21:51.500Z,7.43
2019-04-22T13:24:23.788Z,7.33
2019-04-22T13:26:55.098Z,6.67
2019-04-22T13:29:27.598Z,7.93
2019-04-22T13:32:00.592Z,6.67
2019-04-22T13:34:40.411Z,9.03
2019-04-22T13:37:07.413Z,7.50
2019-04-22T13:39:39.048Z,8.50
2019-04-22T13:42:15.393Z,8.40
2019-04-22T13:44:44.145Z,6.17
2019-04-22T13:47:34.728Z,7.73
2019-04-22T13:52:55.769Z,7.00
2019-04-22T13:55:23.943Z,8.20
2019-04-22T13:57:45.384Z,8.17
2019-04-22T14:00:04.733Z,7.17
2019-04-22T14:03:02.334Z,7.83
2019-04-22T14:05:34.961Z,7.07
2019-04-22T14:08:08.154Z,6.03
2019-04-22T14:10:40.552Z,6.73
2019-04-22T14:13:12.206Z,6.80
2019-04-22T14:15:43.856Z,5.70
2019-04-22T14:18:16.945Z,6.53
2019-04-22T14:20:49.180Z,9.70
2019-04-22T14:23:20.643Z,7.40
2019-04-22T14:25:52.785Z,9.00
2019-04-22T14:28:27.313Z,9.57
2019-04-22T14:30:57.992Z,5.70
2019-04-22T14:33:30.080Z,7.63
2019-04-22T14:36:02.553Z,8.43
2019-04-22T14:38:34.765Z,7.33
2019-04-22T14:41:08.310Z,6.83
2019-04-22T14:44:42.411Z,6.60
2019-04-22T14:46:43.583Z,8.93
2019-04-22T14:49:02.834Z,7.90
2019-04-22T14:51:39.231Z,8.87
2019-04-22T14:54:09.803Z,8.93
2019-04-22T14:56:24.359Z,7.10
2019-04-22T14:58:56.617Z,8.00
2019-04-22T15:01:28.792Z,7.93
2019-04-22T15:04:00.826Z,7.07
2019-04-22T15:06:32.075Z,7.63
2019-04-22T15:09:03.834Z,7.60
2019-04-22T15:11:52.828Z,6.90
2019-04-22T15:14:11.505Z,7.73
2019-04-22T15:17:05.053Z,9.23
2019-04-22T15:19:56.063Z,8.90
2019-04-22T15:22:28.442Z,7.37
2019-04-22T15:25:00.747Z,8.10
2019-04-22T15:27:33.341Z,9.40
2019-04-22T15:30:05.747Z,9.17
2019-04-22T15:32:36.936Z,12.03
2019-04-22T15:35:09.182Z,9.40
2019-04-22T15:37:41.402Z,8.70
2019-04-22T15:40:13.222Z,8.63
2019-04-22T15:42:45.203Z,7.67
2019-04-22T15:45:18.931Z,7.70
2019-04-22T15:47:52.380Z,6.70
2019-04-22T15:50:24.562Z,8.20
2019-04-22T15:52:58.881Z,8.33
2019-04-22T15:55:29.162Z,10.33
2019-04-22T15:58:01.796Z,8.40
2019-04-22T16:00:47.205Z,10.43
2019-04-22T16:03:10.059Z,6.67
2019-04-22T16:05:39.745Z,8.57
2019-04-22T16:08:12.815Z,10.37
2019-04-22T16:10:44.147Z,10.10
2019-04-22T16:13:22.353Z,9.20
2019-04-22T16:15:49.091Z,11.73
2019-04-22T16:18:20.230Z,10.90
2019-04-22T16:20:52.407Z,9.53
2019-04-22T16:23:38.505Z,8.87
2019-04-22T16:26:18.009Z,10.10
2019-04-22T16:28:52.228Z,8.27
2019-04-22T16:31:22.310Z,8.27
2019-04-22T16:33:54.367Z,11.97
2019-04-22T16:36:26.941Z,8.10
2019-04-22T16:38:58.081Z,7.00
2019-04-22T16:41:32.988Z,8.53
2019-04-22T16:44:04.643Z,6.90
2019-04-22T16:46:37.327Z,7.53
2019-04-22T16:49:09.776Z,9.77
2019-04-22T16:51:42.222Z,12.57
2019-04-22T16:54:13.851Z,9.90
2019-04-22T16:56:45.769Z,8.77
2019-04-22T16:59:17.331Z,7.43
2019-04-22T17:02:08.481Z,10.23
2019-04-22T17:05:07.480Z,8.67
2019-04-22T17:07:40.147Z,12.93
2019-04-22T17:10:11.626Z,12.00
2019-04-22T17:12:50.813Z,11.40
2019-04-22T17:15:18.353Z,10.93
2019-04-22T17:17:49.521Z,9.73
2019-04-22T17:20:21.005Z,9.87
2019-04-22T17:22:53.510Z,11.13
2019-04-22T17:25:24.851Z,7.43
2019-04-22T17:27:57.258Z,9.60
2019-04-22T17:30:29.212Z,10.03
2019-04-22T17:33:00.873Z,11.00
2019-04-22T17:35:34.054Z,14.23
2019-04-22T17:38:16.405Z,14.83
2019-04-22T17:40:51.146Z,8.27
2019-04-22T17:43:42.045Z,10.60
2019-04-22T17:46:17.718Z,9.27
2019-04-22T17:49:17.028Z,11.40
2019-04-22T17:52:07.579Z,10.53
2019-04-22T17:54:38.598Z,10.20
2019-04-22T17:57:09.994Z,10.80
2019-04-22T17:59:41.858Z,9.30
2019-04-22T18:02:09.656Z,9.40
2019-04-22T18:04:33.711Z,9.67
2019-04-22T18:07:31.144Z,8.90
2019-04-22T18:15:04.305Z,13.13
2019-04-22T18:17:35.629Z,9.57
2019-04-22T18:20:08.905Z,8.97
2019-04-22T18:22:33.094Z,9.17
2019-04-22T18:25:06.341Z,10.73
2019-04-22T18:28:09.085Z,9.30
2019-04-22T18:30:16.720Z,6.67
2019-04-22T18:32:53.323Z,8.30
2019-04-22T18:35:20.901Z,10.13
2019-04-22T18:38:03.285Z,10.23
2019-04-22T18:40:30.573Z,10.20
2019-04-22T18:43:04.814Z,11.67
2019-04-22T18:48:05.362Z,8.60
2019-04-22T18:51:06.456Z,10.33
2019-04-22T18:53:50.851Z,9.23
2019-04-22T18:56:25.532Z,8.13
2019-04-22T18:58:52.754Z,8.43
2019-04-22T19:01:12.814Z,7.73
2019-04-22T19:03:54.285Z,7.37
2019-04-22T19:09:17.094Z,8.77
2019-04-22T19:11:51.718Z,6.33
2019-04-22T19:14:17.890Z,8.20
2019-04-22T19:16:57.537Z,7.57
2019-04-22T19:19:38.379Z,8.10
2019-04-22T19:21:51.387Z,8.87
2019-04-22T19:24:24.537Z,7.63
2019-04-22T19:27:02.937Z,8.17
2019-04-22T19:29:39.167Z,8.23
2019-04-22T19:32:08.383Z,10.13
2019-04-22T19:34:38.195Z,12.20
2019-04-22T19:37:15.349Z,10.97
2019-04-22T19:39:53.097Z,11.17
2019-04-22T19:42:30.493Z,10.83
2019-04-22T19:44:55.189Z,10.20
2019-04-22T19:47:31.844Z,10.17
2019-04-22T19:50:09.860Z,10.37
2019-04-22T19:52:33.712Z,9.17
2019-04-22T19:55:07.941Z,11.17
2019-04-22T19:57:41.936Z,10.20
2019-04-22T20:00:14.463Z,8.00
2019-04-22T20:03:16.629Z,9.33
2019-04-22T20:05:48.072Z,12.67
2019-04-22T20:08:38.145Z,9.80
2019-04-22T20:10:52.267Z,11.20
2019-04-22T20:13:36.543Z,10.60
2019-04-22T20:15:54.002Z,8.17
2019-04-22T20:18:43.676Z,11.47
2019-04-22T20:21:12.961Z,9.43
2019-04-22T20:23:32.905Z,10.97
2019-04-22T20:26:08.620Z,10.67
2019-04-22T20:28:51.246Z,8.20
2019-04-22T20:31:22.168Z,9.80
2019-04-22T20:34:01.353Z,12.47
2019-04-22T20:36:44.992Z,16.53
2019-04-22T20:38:58.145Z,9.80
2019-04-22T20:41:24.915Z,14.33
2019-04-22T20:44:11.049Z,15.20
2019-04-22T20:46:36.121Z,10.87
2019-04-22T20:49:11.620Z,12.30
2019-04-22T20:51:54.330Z,10.33
2019-04-22T20:54:17.397Z,12.10
2019-04-22T20:56:49.251Z,10.60
2019-04-22T20:59:24.044Z,11.57
2019-04-22T21:01:56.423Z,12.30
2019-04-22T21:04:23.968Z,12.03
2019-04-22T21:07:00.900Z,9.90
2019-04-22T21:09:33.323Z,12.00
2019-04-22T21:12:05.016Z,9.37
2019-04-22T21:14:41.460Z,12.53
2019-04-22T21:17:17.149Z,9.87
2019-04-22T21:19:58.375Z,10.33
2019-04-22T21:22:30.833Z,8.97
2019-04-22T21:24:52.294Z,9.67
2019-04-22T21:27:37.115Z,11.57
2019-04-22T21:29:55.964Z,8.80
2019-04-22T21:32:34.382Z,10.48
2019-04-22T21:35:11.778Z,9.13
2019-04-22T21:37:51.013Z,9.23
2019-04-22T21:40:20.153Z,11.70
2019-04-22T21:42:58.287Z,12.83
2019-04-22T21:45:19.363Z,12.20
2019-04-22T21:48:04.773Z,9.77
2019-04-22T21:50:41.555Z,9.03
2019-04-22T21:53:07.294Z,9.60
2019-04-22T21:55:43.766Z,9.55
2019-04-22T21:58:18.730Z,8.13
2019-04-22T22:01:33.043Z,11.70
2019-04-22T22:03:58.811Z,10.63
2019-04-22T22:06:19.034Z,11.63
2019-04-22T22:09:02.473Z,8.48
2019-04-22T22:11:27.719Z,8.63
2019-04-22T22:14:02.730Z,9.30
2019-04-22T22:16:31.920Z,10.25
2019-04-22T22:19:10.943Z,8.60
2019-04-22T22:21:51.240Z,12.50
2019-04-22T22:24:22.628Z,9.93
2019-04-22T22:26:50.412Z,9.38
2019-04-22T22:29:40.205Z,10.58
2019-04-22T22:32:03.208Z,11.43
2019-04-22T22:34:26.777Z,11.40
2019-04-22T22:36:56.141Z,11.65
2019-04-22T22:39:27.511Z,8.70
2019-04-22T22:41:50.029Z,10.45
2019-04-22T22:44:30.262Z,9.38
2019-04-22T22:47:15.625Z,8.20
2019-04-22T22:49:50.190Z,8.60
2019-04-22T22:52:45.393Z,7.97
2019-04-22T22:54:59.717Z,8.13
2019-04-22T22:57:33.093Z,8.58
2019-04-22T22:59:58.648Z,7.30
2019-04-22T23:02:36.921Z,7.92
2019-04-22T23:05:09.606Z,8.73
2019-04-22T23:07:47.539Z,11.65
2019-04-22T23:10:14.496Z,9.73
2019-04-22T23:13:08.418Z,7.22
2019-04-22T23:15:20.450Z,8.98
2019-04-22T23:17:38.967Z,9.35
2019-04-22T23:20:09.657Z,7.05
2019-04-22T23:23:12.340Z,9.08
2019-04-22T23:25:55.087Z,8.80
2019-04-22T23:28:24.501Z,8.85
2019-04-22T23:31:09.533Z,7.75
2019-04-22T23:33:54.692Z,10.38
2019-04-22T23:36:52.012Z,9.80
2019-04-22T23:39:30.928Z,10.70
2019-04-22T23:42:04.785Z,6.22
2019-04-22T23:44:30.815Z,11.88
2019-04-22T23:47:06.094Z,9.05
2019-04-22T23:49:35.331Z,12.37
2019-04-22T23:52:22.431Z,6.72
2019-04-22T23:54:56.559Z,12.78
2019-04-22T23:57:30.280Z,10.78
